Time;durP1;ratioP1;P1;durP2;ratioP2;P2;SDS_P1;SDS_P2;PMS_P1;PMS_P2;Temp;Humidity;BMP_temperature;BMP_pressure;BME280_temperature;BME280_humidity;BME280_pressure;Samples;Min_cycle;Max_cycle;Signal;HPM_P1;HPM_P2
2024/02/27 00:01:21;;;;;;;12.65;9.60;;;24.00;48.10;;;;;;6105477;28;82874;-57
2024/02/27 00:04:21;;;;;;;12.77;9.63;;;24.00;48.10;;;;;;6104401;28;80861;-55
2024/02/27 00:07:23;;;;;;;13.30;9.43;;;24.00;48.20;;;;;;6102686;28;80350;-55
2024/02/27 00:10:24;;;;;;;11.20;8.05;;;24.00;48.30;;;;;;6100921;28;81694;-57
2024/02/27 00:13:24;;;;;;;12.13;8.57;;;24.00;48.40;;;;;;6098139;28;83350;-56
2024/02/27 00:16:25;;;;;;;11.98;7.85;;;24.00;48.60;;;;;;6105532;28;80442;-53
2024/02/27 00:19:25;;;;;;;11.25;8.35;;;24.00;48.20;;;;;;6102772;28;81174;-58
2024/02/27 00:22:26;;;;;;;11.68;8.85;;;24.00;48.30;;;;;;6100854;28;81599;-58
2024/02/27 00:25:26;;;;;;;10.77;8.00;;;24.00;48.30;;;;;;6083005;28;81798;-57
2024/02/27 00:28:27;;;;;;;10.95;8.05;;;24.00;48.20;;;;;;6088142;28;80687;-58
2024/02/27 00:31:27;;;;;;;11.70;8.20;;;24.00;48.30;;;;;;6100416;28;81429;-59
2024/02/27 00:34:28;;;;;;;11.02;7.00;;;24.00;48.40;;;;;;6105346;28;81138;-57
2024/02/27 00:37:28;;;;;;;10.02;7.88;;;24.00;48.60;;;;;;6105343;28;80578;-59
2024/02/27 00:40:29;;;;;;;12.88;8.45;;;24.00;48.40;;;;;;6105802;28;80695;-59
2024/02/27 00:43:29;;;;;;;12.57;9.23;;;24.00;48.40;;;;;;6093592;28;80307;-60
2024/02/27 00:46:30;;;;;;;11.27;8.23;;;24.00;48.20;;;;;;6081631;28;80299;-59
2024/02/27 00:49:30;;;;;;;11.45;8.27;;;24.00;48.00;;;;;;6094003;28;81325;-59
2024/02/27 00:52:31;;;;;;;13.10;8.52;;;24.00;48.00;;;;;;6086953;28;82288;-59
2024/02/27 00:55:32;;;;;;;11.95;8.80;;;24.00;48.30;;;;;;6102903;28;84071;-58
2024/02/27 00:58:34;;;;;;;11.13;8.25;;;23.90;48.20;;;;;;6104275;28;81600;-58
2024/02/27 01:01:36;;;;;;;12.27;8.73;;;23.90;48.20;;;;;;6104673;28;81116;-58
2024/02/27 01:04:36;;;;;;;12.13;8.80;;;23.90;48.20;;;;;;6105031;28;83346;-58
2024/02/27 01:07:37;;;;;;;13.60;8.27;;;24.00;48.30;;;;;;6100399;28;80755;-59
2024/02/27 01:10:38;;;;;;;12.68;8.45;;;23.90;48.20;;;;;;6103486;28;80748;-58
2024/02/27 01:13:38;;;;;;;12.25;7.95;;;23.90;48.30;;;;;;6103736;28;81381;-57
2024/02/27 01:16:39;;;;;;;13.13;8.88;;;24.00;48.20;;;;;;6101878;28;80761;-57
2024/02/27 01:19:39;;;;;;;13.93;8.98;;;23.90;48.20;;;;;;6103883;28;81441;-56
2024/02/27 01:22:40;;;;;;;12.73;8.43;;;24.00;48.20;;;;;;6098136;28;80800;-57
2024/02/27 01:25:40;;;;;;;11.32;8.88;;;23.90;48.20;;;;;;6105344;28;80947;-57
2024/02/27 01:28:41;;;;;;;13.65;8.50;;;24.00;48.20;;;;;;6091351;28;80823;-57
2024/02/27 01:31:42;;;;;;;12.75;8.82;;;23.90;48.20;;;;;;6087414;28;83854;-58
2024/02/27 01:34:43;;;;;;;12.80;9.15;;;24.00;48.10;;;;;;6098312;28;80522;-58
2024/02/27 01:37:43;;;;;;;12.82;9.48;;;24.00;48.10;;;;;;6088798;28;80466;-59
2024/02/27 01:40:44;;;;;;;13.90;8.75;;;24.00;48.10;;;;;;6082071;28;80656;-57
2024/02/27 01:43:44;;;;;;;12.68;9.25;;;23.90;48.00;;;;;;6105465;28;80331;-59
2024/02/27 01:46:45;;;;;;;13.88;9.40;;;24.00;48.00;;;;;;6103697;28;80198;-59
2024/02/27 01:49:45;;;;;;;13.95;8.90;;;23.90;47.90;;;;;;6104690;28;80775;-58
2024/02/27 01:52:46;;;;;;;13.45;9.95;;;23.90;47.90;;;;;;6104354;28;80609;-58
2024/02/27 01:55:46;;;;;;;12.98;9.20;;;24.00;47.90;;;;;;6103263;28;82082;-58
2024/02/27 01:58:47;;;;;;;12.23;9.05;;;23.90;47.80;;;;;;6099308;28;80864;-57
2024/02/27 02:01:48;;;;;;;13.43;8.80;;;23.90;47.90;;;;;;6090336;28;80857;-58
2024/02/27 02:04:49;;;;;;;14.35;9.75;;;24.00;48.00;;;;;;6098560;28;80677;-57
2024/02/27 02:07:49;;;;;;;12.00;8.70;;;23.90;48.10;;;;;;6081447;28;80421;-57
2024/02/27 02:10:50;;;;;;;13.88;9.00;;;23.90;47.90;;;;;;6090704;28;81277;-58
2024/02/27 02:13:50;;;;;;;16.75;10.35;;;23.90;47.90;;;;;;6085154;28;80352;-57
2024/02/27 02:16:51;;;;;;;16.63;9.50;;;23.90;47.90;;;;;;6083169;28;82718;-58
2024/02/27 02:19:51;;;;;;;15.07;9.88;;;23.90;48.00;;;;;;6100780;28;81815;-58
2024/02/27 02:22:52;;;;;;;13.93;9.55;;;23.90;48.00;;;;;;6097449;28;81372;-57
2024/02/27 02:25:52;;;;;;;14.02;9.93;;;23.90;48.00;;;;;;6080619;28;80938;-59
2024/02/27 02:28:53;;;;;;;15.60;10.15;;;23.90;47.80;;;;;;6079408;28;80788;-58
2024/02/27 02:31:53;;;;;;;13.98;10.05;;;23.90;47.70;;;;;;6094786;28;83719;-58
2024/02/27 02:34:54;;;;;;;15.43;9.90;;;23.90;47.80;;;;;;6098703;28;83770;-57
2024/02/27 02:37:54;;;;;;;15.27;10.10;;;23.90;47.90;;;;;;6101043;28;83046;-55
2024/02/27 02:40:55;;;;;;;13.45;10.23;;;23.90;47.90;;;;;;6100574;28;82800;-58
2024/02/27 02:43:55;;;;;;;14.40;9.85;;;23.90;47.90;;;;;;6098194;28;84392;-57
2024/02/27 02:46:56;;;;;;;12.27;8.73;;;23.90;47.90;;;;;;6103179;28;83669;-57
2024/02/27 02:49:56;;;;;;;11.55;8.93;;;23.90;48.00;;;;;;6104809;28;81112;-55
2024/02/27 02:52:57;;;;;;;14.57;9.52;;;23.90;48.00;;;;;;6105879;28;85939;-58
2024/02/27 02:55:57;;;;;;;12.60;8.75;;;23.90;48.10;;;;;;6087307;28;81266;-58
2024/02/27 02:58:58;;;;;;;13.95;9.80;;;23.90;48.10;;;;;;6094147;28;80601;-55
2024/02/27 03:01:58;;;;;;;12.98;8.95;;;23.90;48.10;;;;;;6095561;28;81259;-53
2024/02/27 03:04:59;;;;;;;12.65;9.48;;;23.90;48.20;;;;;;6083546;28;81610;-55
2024/02/27 03:07:59;;;;;;;12.60;9.18;;;23.90;48.20;;;;;;6083197;28;80219;-56
2024/02/27 03:11:00;;;;;;;11.90;9.00;;;23.90;48.20;;;;;;6105749;28;80419;-57
2024/02/27 03:14:00;;;;;;;12.30;8.85;;;23.90;48.20;;;;;;6087224;28;80340;-54
2024/02/27 03:17:01;;;;;;;14.00;8.93;;;23.90;48.20;;;;;;6096423;28;82236;-55
2024/02/27 03:20:05;;;;;;;15.45;8.82;;;23.90;48.00;;;;;;6084402;28;81186;-55
2024/02/27 03:23:05;;;;;;;14.07;9.75;;;23.90;48.10;;;;;;6096735;28;80353;-56
2024/02/27 03:26:06;;;;;;;12.75;9.70;;;23.90;48.10;;;;;;6106117;28;81388;-55
2024/02/27 03:29:07;;;;;;;11.60;8.60;;;23.90;48.00;;;;;;6083233;28;80560;-58
2024/02/27 03:32:07;;;;;;;13.23;8.93;;;23.90;47.90;;;;;;6094192;28;81414;-58
2024/02/27 03:35:08;;;;;;;14.00;9.52;;;23.90;47.90;;;;;;6100952;28;80839;-58
2024/02/27 03:38:08;;;;;;;12.75;9.10;;;23.90;47.80;;;;;;6095526;28;80613;-58
2024/02/27 03:41:09;;;;;;;15.15;9.43;;;23.90;47.80;;;;;;6093149;28;81662;-58
2024/02/27 03:44:09;;;;;;;13.65;10.10;;;23.90;47.90;;;;;;6077814;28;81086;-58
2024/02/27 03:47:11;;;;;;;13.02;9.40;;;23.90;47.70;;;;;;6081174;28;83806;-59
2024/02/27 03:50:11;;;;;;;15.07;9.95;;;23.90;47.70;;;;;;6093682;28;81849;-59
2024/02/27 03:53:12;;;;;;;13.98;9.80;;;23.90;47.70;;;;;;6092531;28;82813;-59
2024/02/27 03:56:13;;;;;;;15.95;9.07;;;23.90;47.70;;;;;;6093774;28;82959;-60
2024/02/27 03:59:13;;;;;;;15.05;10.18;;;23.90;47.70;;;;;;6102069;28;80906;-58
2024/02/27 04:02:14;;;;;;;13.52;9.45;;;23.90;47.80;;;;;;6095208;28;84463;-58
2024/02/27 04:05:14;;;;;;;12.40;8.98;;;23.80;47.70;;;;;;6104387;28;82909;-57
2024/02/27 04:08:15;;;;;;;13.38;9.95;;;23.90;47.80;;;;;;6092638;28;80275;-56
2024/02/27 04:11:15;;;;;;;13.77;10.02;;;23.90;47.60;;;;;;6079686;28;81017;-58
2024/02/27 04:14:16;;;;;;;15.48;10.52;;;23.90;47.80;;;;;;6084734;28;83245;-57
2024/02/27 04:17:17;;;;;;;14.45;9.88;;;23.90;48.00;;;;;;6084619;28;83456;-59
2024/02/27 04:20:18;;;;;;;14.43;9.23;;;23.90;48.10;;;;;;6082515;28;83216;-58
2024/02/27 04:23:19;;;;;;;15.38;9.48;;;23.80;48.10;;;;;;6098257;28;80789;-58
2024/02/27 04:26:20;;;;;;;15.90;9.85;;;23.90;48.10;;;;;;6081231;28;80404;-57
2024/02/27 04:29:21;;;;;;;17.05;10.35;;;23.90;48.10;;;;;;6081124;28;80487;-58
2024/02/27 04:32:21;;;;;;;14.63;10.18;;;23.90;47.80;;;;;;6081823;28;82981;-58
2024/02/27 04:35:23;;;;;;;14.43;9.80;;;23.90;47.60;;;;;;6090261;28;90412;-56
2024/02/27 04:38:23;;;;;;;13.30;8.50;;;23.90;47.30;;;;;;6093816;28;83017;-56
2024/02/27 04:41:24;;;;;;;13.35;9.10;;;23.90;47.40;;;;;;6087849;28;80526;-59
2024/02/27 04:44:24;;;;;;;17.35;10.00;;;24.00;47.40;;;;;;6104174;28;80499;-58
2024/02/27 04:47:26;;;;;;;15.07;10.38;;;24.00;47.30;;;;;;6099269;28;83708;-59
2024/02/27 04:50:26;;;;;;;16.48;11.57;;;24.00;48.10;;;;;;6098797;28;83336;-58
2024/02/27 04:53:28;;;;;;;16.05;10.25;;;24.10;47.60;;;;;;6087395;28;84395;-59
2024/02/27 04:56:28;;;;;;;16.52;10.32;;;24.10;47.60;;;;;;6084213;28;83193;-59
2024/02/27 04:59:29;;;;;;;18.02;10.75;;;24.10;48.00;;;;;;6082492;28;83196;-58
2024/02/27 05:02:29;;;;;;;15.25;10.02;;;24.10;48.20;;;;;;6094984;28;83011;-58
2024/02/27 05:05:30;;;;;;;16.70;10.77;;;24.10;48.50;;;;;;6094135;28;85376;-55
2024/02/27 05:08:30;;;;;;;15.80;10.13;;;24.20;48.40;;;;;;6079046;28;90673;-54
2024/02/27 05:11:31;;;;;;;13.88;9.25;;;24.20;48.40;;;;;;6095857;28;83379;-53
2024/02/27 05:14:32;;;;;;;15.65;10.00;;;24.20;48.80;;;;;;6075893;28;83057;-59
2024/02/27 05:17:32;;;;;;;18.95;9.52;;;24.30;48.90;;;;;;6091293;28;82840;-63
2024/02/27 05:20:33;;;;;;;14.73;9.65;;;24.30;49.00;;;;;;6106925;28;83159;-56
2024/02/27 05:23:33;;;;;;;15.43;9.75;;;24.30;49.10;;;;;;6104681;28;81631;-58
2024/02/27 05:26:34;;;;;;;15.90;10.38;;;24.30;49.10;;;;;;6097804;28;80695;-58
2024/02/27 05:29:34;;;;;;;13.98;8.75;;;24.30;49.10;;;;;;6091855;28;82879;-58
2024/02/27 05:32:35;;;;;;;18.25;10.02;;;24.40;49.10;;;;;;6094805;28;82824;-60
2024/02/27 05:35:35;;;;;;;16.77;9.93;;;24.30;48.90;;;;;;6093946;28;83040;-54
2024/02/27 05:38:36;;;;;;;16.80;9.77;;;24.40;49.20;;;;;;6092698;28;83002;-58
2024/02/27 05:41:36;;;;;;;18.13;11.13;;;24.30;49.10;;;;;;6095477;28;80571;-58
2024/02/27 05:44:37;;;;;;;18.90;10.32;;;24.30;49.10;;;;;;6095976;28;85086;-56
2024/02/27 05:47:37;;;;;;;15.80;10.32;;;24.20;49.40;;;;;;6090298;28;83310;-57
2024/02/27 05:50:38;;;;;;;15.65;9.48;;;24.30;49.70;;;;;;6084247;28;84413;-58
2024/02/27 05:53:38;;;;;;;16.15;9.65;;;24.20;49.40;;;;;;6100058;28;83580;-58
2024/02/27 05:56:39;;;;;;;13.55;9.70;;;24.30;49.20;;;;;;6094233;28;80530;-58
2024/02/27 05:59:39;;;;;;;15.38;10.15;;;24.30;49.00;;;;;;6073943;28;83888;-58
2024/02/27 06:02:40;;;;;;;14.60;10.05;;;24.30;48.90;;;;;;6089838;28;84748;-59
2024/02/27 06:05:40;;;;;;;17.27;10.15;;;24.20;48.80;;;;;;6086947;28;83056;-59
2024/02/27 06:08:41;;;;;;;16.60;10.18;;;24.20;48.70;;;;;;6098612;28;84310;-58
2024/02/27 06:11:41;;;;;;;15.73;10.43;;;24.20;48.60;;;;;;6099708;28;84193;-60
2024/02/27 06:14:42;;;;;;;15.82;10.23;;;24.20;48.40;;;;;;6091518;28;86971;-59
2024/02/27 06:17:42;;;;;;;14.68;10.15;;;24.10;48.30;;;;;;6091784;28;83410;-59
2024/02/27 06:24:02;;;;;;;17.60;10.60;;;24.10;48.20;;;;;;6095149;28;83032;-58
2024/02/27 06:27:03;;;;;;;16.92;10.95;;;24.20;48.70;;;;;;6102836;28;83099;-59
2024/02/27 06:30:03;;;;;;;17.58;11.07;;;24.20;48.00;;;;;;6104901;28;83955;-59
2024/02/27 06:33:04;;;;;;;17.85;10.85;;;24.10;47.90;;;;;;6104564;28;85186;-59
2024/02/27 06:36:04;;;;;;;17.52;10.48;;;24.10;47.90;;;;;;6103479;28;84074;-59
2024/02/27 06:39:05;;;;;;;17.20;11.50;;;24.10;47.80;;;;;;6104345;28;83354;-59
2024/02/27 06:42:08;;;;;;;19.48;11.05;;;24.10;47.80;;;;;;6104384;28;83310;-59
2024/02/27 06:45:08;;;;;;;15.80;11.32;;;24.10;47.70;;;;;;6101081;28;84502;-59
2024/02/27 06:48:10;;;;;;;18.42;11.30;;;24.10;47.70;;;;;;6102989;28;85820;-59
2024/02/27 06:51:10;;;;;;;14.90;10.18;;;24.10;47.70;;;;;;6102463;28;83100;-59
2024/02/27 06:54:11;;;;;;;17.02;10.07;;;24.10;47.60;;;;;;6081146;28;83058;-59
2024/02/27 06:57:11;;;;;;;15.75;10.88;;;24.10;47.60;;;;;;6100762;28;83540;-59
2024/02/27 07:00:12;;;;;;;18.17;10.98;;;24.10;47.60;;;;;;6103612;28;86642;-59
2024/02/27 07:03:12;;;;;;;17.80;11.23;;;24.10;47.50;;;;;;6104329;28;83540;-58
2024/02/27 07:06:13;;;;;;;18.13;10.52;;;24.00;47.40;;;;;;6102575;28;83709;-58
2024/02/27 07:09:14;;;;;;;18.13;10.93;;;24.00;47.40;;;;;;6103877;28;84278;-57
2024/02/27 07:12:15;;;;;;;17.73;10.57;;;24.10;47.50;;;;;;6104968;28;83410;-59
2024/02/27 07:15:15;;;;;;;15.73;9.65;;;24.00;47.40;;;;;;6103122;28;85157;-59
2024/02/27 07:18:16;;;;;;;18.30;10.95;;;24.00;47.40;;;;;;6106763;28;82741;-59
2024/02/27 07:21:17;;;;;;;14.02;10.13;;;24.00;47.50;;;;;;6102237;28;82663;-59
2024/02/27 07:24:19;;;;;;;16.80;11.02;;;24.00;47.40;;;;;;6092312;28;83511;-59
2024/02/27 07:27:19;;;;;;;14.85;10.45;;;24.00;47.40;;;;;;6079358;28;83428;-58
2024/02/27 07:30:20;;;;;;;16.33;10.82;;;24.00;47.40;;;;;;6080657;28;83480;-59
2024/02/27 07:33:21;;;;;;;18.27;11.00;;;24.00;47.40;;;;;;6102243;28;84811;-59
2024/02/27 07:36:21;;;;;;;14.70;9.95;;;24.00;47.50;;;;;;6102314;28;84859;-58
2024/02/27 07:39:22;;;;;;;16.33;10.75;;;24.00;47.40;;;;;;6105410;28;83045;-59
2024/02/27 07:42:22;;;;;;;15.45;10.05;;;23.90;47.40;;;;;;6099002;28;83872;-59
2024/02/27 07:45:23;;;;;;;16.67;10.00;;;24.00;47.40;;;;;;6104103;28;83778;-59
2024/02/27 07:48:23;;;;;;;15.63;10.15;;;24.00;47.40;;;;;;6102232;28;83492;-59
2024/02/27 07:51:24;;;;;;;14.35;10.02;;;23.90;47.30;;;;;;6100580;28;85477;-59
2024/02/27 07:54:24;;;;;;;14.20;10.15;;;23.90;47.30;;;;;;6090726;28;82966;-59
2024/02/27 07:57:25;;;;;;;17.13;11.27;;;23.90;47.20;;;;;;6102412;28;84271;-59
2024/02/27 08:00:26;;;;;;;16.92;10.35;;;23.90;47.20;;;;;;6102214;28;83498;-58
2024/02/27 08:03:26;;;;;;;14.23;10.75;;;23.90;47.20;;;;;;6101020;28;83159;-59
2024/02/27 08:06:27;;;;;;;19.70;10.77;;;23.90;47.20;;;;;;6100655;28;86112;-58
2024/02/27 08:09:28;;;;;;;20.45;11.07;;;23.90;47.20;;;;;;6101122;28;84479;-59
2024/02/27 08:12:28;;;;;;;13.63;10.00;;;23.90;47.10;;;;;;6102079;28;83136;-59
2024/02/27 08:15:29;;;;;;;15.32;10.63;;;23.90;47.10;;;;;;6102407;28;84415;-59
2024/02/27 08:18:29;;;;;;;18.02;10.85;;;23.90;47.10;;;;;;6102009;28;83058;-59
2024/02/27 08:21:30;;;;;;;14.35;10.68;;;23.90;47.10;;;;;;6101174;28;83326;-58
2024/02/27 08:24:30;;;;;;;16.85;10.88;;;23.90;47.20;;;;;;6101394;28;83255;-59
2024/02/27 08:27:31;;;;;;;14.65;9.80;;;23.90;47.10;;;;;;6101709;28;82797;-59
2024/02/27 08:30:31;;;;;;;17.33;11.23;;;23.90;47.00;;;;;;6105246;28;83159;-59
2024/02/27 08:33:32;;;;;;;16.10;10.38;;;23.90;47.10;;;;;;6093592;28;83931;-59
2024/02/27 08:36:33;;;;;;;13.52;9.23;;;23.90;47.00;;;;;;6091335;28;84384;-59
2024/02/27 08:39:33;;;;;;;13.43;9.75;;;23.90;47.00;;;;;;6098937;28;83133;-59
2024/02/27 08:42:35;;;;;;;15.05;10.02;;;23.90;47.00;;;;;;6104328;28;82563;-59
2024/02/27 08:45:37;;;;;;;12.82;9.70;;;23.90;47.00;;;;;;6101315;28;82720;-59
2024/02/27 08:48:37;;;;;;;15.50;9.27;;;23.90;47.00;;;;;;6104937;28;83473;-58
2024/02/27 08:51:38;;;;;;;15.02;9.23;;;23.90;46.90;;;;;;6101906;28;80800;-58
2024/02/27 08:54:38;;;;;;;15.30;9.30;;;23.90;46.90;;;;;;6093891;28;80996;-58
2024/02/27 08:57:39;;;;;;;14.00;10.15;;;23.90;46.90;;;;;;6105807;28;81004;-59
2024/02/27 09:00:40;;;;;;;13.23;9.40;;;23.90;46.90;;;;;;6101675;28;84460;-59
2024/02/27 09:03:41;;;;;;;17.05;10.70;;;23.90;46.90;;;;;;6104949;28;83279;-59
2024/02/27 09:06:41;;;;;;;14.32;10.05;;;23.90;46.80;;;;;;6101030;28;83129;-58
2024/02/27 09:09:42;;;;;;;14.70;9.60;;;24.00;46.90;;;;;;6101936;28;84022;-60
2024/02/27 09:12:42;;;;;;;14.38;10.00;;;23.90;46.90;;;;;;6089412;28;82371;-60
2024/02/27 09:15:43;;;;;;;14.80;10.00;;;24.00;46.90;;;;;;6092360;28;82967;-60
2024/02/27 09:18:43;;;;;;;15.15;9.80;;;24.00;46.90;;;;;;6100563;28;83982;-60
2024/02/27 09:21:44;;;;;;;11.68;8.93;;;24.00;46.80;;;;;;6103481;28;82472;-59
2024/02/27 09:24:45;;;;;;;15.23;10.02;;;24.10;46.80;;;;;;6104009;28;81189;-60
2024/02/27 09:27:45;;;;;;;16.33;9.55;;;24.10;46.70;;;;;;6101504;28;82665;-60
2024/02/27 09:30:46;;;;;;;15.68;9.55;;;24.20;46.70;;;;;;6104580;28;83400;-59
2024/02/27 09:33:46;;;;;;;13.38;9.45;;;24.20;46.70;;;;;;6102265;28;80344;-59
2024/02/27 09:36:47;;;;;;;14.30;9.48;;;24.30;46.80;;;;;;6103718;28;85060;-59
2024/02/27 09:39:47;;;;;;;14.85;9.32;;;24.30;46.90;;;;;;6104519;28;80629;-59
2024/02/27 09:42:51;;;;;;;15.70;9.15;;;24.40;47.00;;;;;;6102969;28;80546;-60
2024/02/27 09:45:52;;;;;;;12.73;8.45;;;24.40;46.90;;;;;;6103304;28;82110;-60
2024/02/27 09:48:52;;;;;;;12.18;8.63;;;24.40;46.90;;;;;;6103796;28;81511;-60
2024/02/27 09:51:53;;;;;;;14.50;9.15;;;24.50;46.90;;;;;;6098857;28;80630;-59
2024/02/27 09:54:54;;;;;;;13.45;9.13;;;24.50;46.90;;;;;;6080572;28;80587;-59
2024/02/27 09:57:54;;;;;;;15.82;9.45;;;24.60;47.00;;;;;;6092643;28;80655;-59
2024/02/27 10:00:55;;;;;;;11.73;8.88;;;24.60;47.10;;;;;;6097088;28;80687;-59
2024/02/27 10:03:56;;;;;;;12.68;8.88;;;24.60;47.20;;;;;;6095487;28;80413;-58
2024/02/27 10:06:56;;;;;;;12.68;9.35;;;24.60;47.20;;;;;;6108909;28;81153;-59
2024/02/27 10:09:57;;;;;;;13.35;9.38;;;24.70;47.30;;;;;;6095049;28;80929;-59
2024/02/27 10:12:57;;;;;;;11.93;8.68;;;24.70;47.40;;;;;;6091937;28;81576;-60
2024/02/27 10:15:58;;;;;;;13.20;9.00;;;24.60;47.50;;;;;;6088919;28;80867;-60
2024/02/27 10:18:59;;;;;;;12.25;8.63;;;24.60;47.50;;;;;;6107689;28;80941;-60
2024/02/27 10:22:00;;;;;;;13.07;9.50;;;24.70;47.80;;;;;;6097766;28;80556;-59
2024/02/27 10:25:00;;;;;;;11.35;7.85;;;24.70;47.70;;;;;;6106458;28;81355;-60
2024/02/27 10:28:01;;;;;;;12.32;9.23;;;24.70;47.50;;;;;;6104289;28;80863;-60
2024/02/27 10:31:01;;;;;;;11.15;8.38;;;24.80;47.60;;;;;;6103776;28;81002;-60
2024/02/27 10:34:02;;;;;;;12.18;8.38;;;24.90;47.40;;;;;;6108264;28;82984;-59
2024/02/27 10:37:03;;;;;;;11.00;7.80;;;25.00;47.20;;;;;;6108807;28;82637;-59
2024/02/27 10:40:07;;;;;;;11.90;8.25;;;25.10;47.10;;;;;;6107551;28;80676;-59
2024/02/27 10:43:07;;;;;;;12.07;8.32;;;25.20;47.00;;;;;;6107310;28;80532;-60
2024/02/27 10:46:08;;;;;;;11.63;8.52;;;25.20;47.00;;;;;;6107021;28;80050;-59
2024/02/27 10:49:08;;;;;;;11.93;8.35;;;25.30;46.90;;;;;;6107688;28;80420;-59
2024/02/27 10:52:09;;;;;;;11.23;8.20;;;25.30;46.80;;;;;;6101991;28;80468;-59
2024/02/27 10:55:09;;;;;;;10.70;8.43;;;25.40;46.80;;;;;;6087063;28;80586;-59
2024/02/27 10:58:10;;;;;;;10.63;7.85;;;25.50;46.80;;;;;;6094114;28;80443;-59
2024/02/27 11:01:10;;;;;;;13.88;8.43;;;25.50;46.70;;;;;;6094425;28;80874;-59
2024/02/27 11:04:11;;;;;;;10.95;8.18;;;25.50;46.80;;;;;;6108451;28;81999;-59
2024/02/27 11:07:12;;;;;;;11.27;8.20;;;25.50;46.70;;;;;;6084386;28;80619;-59
2024/02/27 11:10:12;;;;;;;11.27;8.13;;;25.50;46.70;;;;;;6082650;28;85002;-59
2024/02/27 11:13:13;;;;;;;11.20;8.18;;;25.50;46.70;;;;;;6083490;28;80332;-59
2024/02/27 11:16:14;;;;;;;10.57;7.60;;;25.50;46.70;;;;;;6086354;28;80355;-59
2024/02/27 11:19:14;;;;;;;11.50;8.13;;;25.50;46.80;;;;;;6084485;28;80450;-59
2024/02/27 11:22:15;;;;;;;11.70;7.97;;;25.50;46.80;;;;;;6099297;28;80943;-59
2024/02/27 11:25:15;;;;;;;11.48;8.77;;;25.40;46.80;;;;;;6098470;28;80570;-60
2024/02/27 11:28:18;;;;;;;11.30;8.05;;;25.40;46.90;;;;;;6101126;28;82406;-59
2024/02/27 11:31:20;;;;;;;11.52;7.70;;;25.40;46.90;;;;;;6107071;28;80821;-59
2024/02/27 11:34:22;;;;;;;11.52;8.35;;;25.30;47.00;;;;;;6092420;28;81391;-60
2024/02/27 11:37:22;;;;;;;11.43;7.68;;;25.40;47.00;;;;;;6082556;28;82000;-60
2024/02/27 11:40:23;;;;;;;10.57;8.07;;;25.40;46.90;;;;;;6097185;28;80285;-60
2024/02/27 11:43:23;;;;;;;11.52;8.52;;;25.40;47.00;;;;;;6084273;28;81346;-60
2024/02/27 11:46:24;;;;;;;10.68;8.00;;;25.40;47.00;;;;;;6096336;28;80513;-61
2024/02/27 11:49:24;;;;;;;12.43;8.38;;;25.40;47.00;;;;;;6083830;28;80909;-61
2024/02/27 11:52:25;;;;;;;11.30;7.72;;;25.40;47.10;;;;;;6091665;28;80445;-60
2024/02/27 11:55:25;;;;;;;11.40;8.63;;;25.40;47.10;;;;;;6095499;28;80769;-60
2024/02/27 11:58:26;;;;;;;11.27;7.97;;;25.30;47.10;;;;;;6095168;28;81379;-60
2024/02/27 12:01:26;;;;;;;10.45;7.63;;;25.40;47.20;;;;;;6082832;28;81219;-60
2024/02/27 12:04:27;;;;;;;9.35;7.80;;;25.40;47.20;;;;;;6096764;28;80667;-62
2024/02/27 12:07:27;;;;;;;11.10;8.38;;;25.40;47.10;;;;;;6106229;28;82929;-59
2024/02/27 12:10:28;;;;;;;12.27;8.10;;;25.50;47.20;;;;;;6103381;28;81733;-59
2024/02/27 12:13:29;;;;;;;9.40;7.28;;;25.50;47.20;;;;;;6097887;28;80925;-60
2024/02/27 12:16:29;;;;;;;11.30;8.05;;;25.50;47.10;;;;;;6081623;28;82055;-60
2024/02/27 12:19:30;;;;;;;8.75;7.18;;;25.60;47.00;;;;;;6081704;28;80764;-60
2024/02/27 12:22:31;;;;;;;11.95;7.85;;;25.60;46.90;;;;;;6095317;28;83604;-60
2024/02/27 12:25:32;;;;;;;9.43;7.18;;;25.60;46.90;;;;;;6106161;28;81166;-60
2024/02/27 12:28:32;;;;;;;11.10;7.95;;;25.60;47.00;;;;;;6105934;28;80387;-59
2024/02/27 12:31:33;;;;;;;10.38;7.28;;;25.50;47.00;;;;;;6101133;28;80618;-60
2024/02/27 12:34:35;;;;;;;11.60;7.93;;;25.50;47.10;;;;;;6097180;28;81988;-59
2024/02/27 12:37:36;;;;;;;9.70;7.50;;;25.50;47.20;;;;;;6081987;28;81449;-60
2024/02/27 12:40:36;;;;;;;11.10;8.05;;;25.50;47.20;;;;;;6082785;28;81173;-60
2024/02/27 12:43:37;;;;;;;13.02;8.23;;;25.40;47.20;;;;;;6083568;28;83058;-59
2024/02/27 12:46:37;;;;;;;13.23;8.10;;;25.40;47.30;;;;;;6082398;28;80435;-60
2024/02/27 12:49:38;;;;;;;9.32;7.20;;;25.40;47.30;;;;;;6110056;28;83192;-59
2024/02/27 12:52:39;;;;;;;10.27;7.90;;;25.40;47.30;;;;;;6090995;28;80441;-60
2024/02/27 12:55:39;;;;;;;9.90;7.82;;;25.40;47.40;;;;;;6093800;28;81561;-62
2024/02/27 12:58:40;;;;;;;9.65;7.60;;;25.40;47.40;;;;;;6082314;28;81416;-59
2024/02/27 13:01:41;;;;;;;10.55;7.30;;;25.30;47.40;;;;;;6095009;28;80718;-59
2024/02/27 13:04:42;;;;;;;10.52;7.10;;;25.30;47.40;;;;;;6104507;28;83947;-59
2024/02/27 13:07:42;;;;;;;11.10;7.57;;;25.30;47.50;;;;;;6089837;28;82071;-60
2024/02/27 13:10:43;;;;;;;13.18;8.05;;;25.30;47.50;;;;;;6105405;28;80663;-60
2024/02/27 13:13:43;;;;;;;9.32;7.22;;;25.30;47.60;;;;;;6104938;28;81015;-59
2024/02/27 13:16:44;;;;;;;9.85;7.15;;;25.20;47.60;;;;;;6100211;28;80304;-59
2024/02/27 13:19:44;;;;;;;11.13;8.05;;;25.20;47.60;;;;;;6084292;28;82242;-60
2024/02/27 13:22:45;;;;;;;10.30;7.70;;;25.20;47.60;;;;;;6098453;28;80487;-60
2024/02/27 13:25:48;;;;;;;10.45;7.70;;;25.30;47.70;;;;;;6081421;28;80329;-60
2024/02/27 13:28:48;;;;;;;9.02;7.22;;;25.20;47.60;;;;;;6094160;28;80505;-60
2024/02/27 13:31:49;;;;;;;8.82;7.22;;;25.30;47.80;;;;;;6093987;28;80217;-60
2024/02/27 13:34:49;;;;;;;10.60;7.35;;;25.30;47.70;;;;;;6081708;28;80438;-60
2024/02/27 13:37:50;;;;;;;10.68;7.45;;;25.20;47.70;;;;;;6081147;28;80299;-60
2024/02/27 13:40:51;;;;;;;8.93;6.88;;;25.20;47.70;;;;;;6082615;28;80741;-60
2024/02/27 13:43:52;;;;;;;10.00;7.68;;;25.20;47.80;;;;;;6082178;28;81075;-60
2024/02/27 13:46:52;;;;;;;9.75;7.32;;;25.20;47.90;;;;;;6094582;28;81092;-60
2024/02/27 13:49:53;;;;;;;9.55;7.13;;;25.10;47.80;;;;;;6103538;28;80501;-60
2024/02/27 13:52:54;;;;;;;10.80;7.20;;;25.10;48.00;;;;;;6090686;28;80849;-60
2024/02/27 13:55:54;;;;;;;9.80;7.07;;;25.00;48.00;;;;;;6082387;28;80736;-61
2024/02/27 13:58:55;;;;;;;10.85;7.60;;;25.00;48.20;;;;;;6094810;28;80803;-59
2024/02/27 14:01:55;;;;;;;13.00;7.15;;;25.00;48.40;;;;;;6091908;28;80291;-58
2024/02/27 14:04:56;;;;;;;11.32;7.88;;;24.90;48.50;;;;;;6099391;28;80881;-60
2024/02/27 14:07:56;;;;;;;11.02;7.72;;;24.90;48.60;;;;;;6090287;28;80851;-59
2024/02/27 14:10:59;;;;;;;13.35;7.03;;;24.90;48.70;;;;;;6090733;28;81171;-59
2024/02/27 14:13:59;;;;;;;9.80;6.57;;;24.90;48.70;;;;;;6089838;28;80227;-59
2024/02/27 14:17:00;;;;;;;14.57;7.68;;;24.90;49.10;;;;;;6091984;28;80347;-59
2024/02/27 14:20:01;;;;;;;15.38;8.18;;;24.90;49.00;;;;;;6091605;28;80633;-58
2024/02/27 14:23:01;;;;;;;17.80;8.00;;;24.80;49.00;;;;;;6097076;28;80735;-54
2024/02/27 14:26:02;;;;;;;16.42;8.00;;;24.70;48.80;;;;;;6089999;28;85067;-54
2024/02/27 14:29:02;;;;;;;15.20;7.50;;;24.70;48.60;;;;;;6090386;28;80594;-56
2024/02/27 14:32:03;;;;;;;11.88;8.00;;;24.70;48.70;;;;;;6099073;28;82593;-54
2024/02/27 14:35:04;;;;;;;17.38;8.85;;;24.70;48.60;;;;;;6097681;28;80368;-55
2024/02/27 14:38:07;;;;;;;15.57;8.85;;;24.70;48.40;;;;;;6099778;28;82354;-57
2024/02/27 14:41:08;;;;;;;16.83;8.40;;;24.70;48.30;;;;;;6100660;28;81178;-56
2024/02/27 14:44:08;;;;;;;15.25;8.63;;;24.60;48.40;;;;;;6098539;28;80449;-55
2024/02/27 14:47:09;;;;;;;15.65;9.10;;;24.60;48.10;;;;;;6104466;28;83830;-52
2024/02/27 14:50:09;;;;;;;18.88;9.57;;;24.60;48.20;;;;;;6094116;28;80966;-56
2024/02/27 14:53:10;;;;;;;16.98;8.88;;;24.60;48.90;;;;;;6083657;28;80545;-58
2024/02/27 14:56:10;;;;;;;14.35;8.70;;;24.60;49.10;;;;;;6082254;28;80364;-57
2024/02/27 14:59:11;;;;;;;13.63;8.68;;;24.60;48.60;;;;;;6089275;28;83080;-55
2024/02/27 15:02:11;;;;;;;14.18;8.88;;;24.60;48.20;;;;;;6101118;28;80751;-56
2024/02/27 15:05:12;;;;;;;19.67;8.88;;;24.50;48.10;;;;;;6090291;28;81820;-58
2024/02/27 15:08:12;;;;;;;17.23;9.57;;;24.50;49.00;;;;;;6106678;28;80721;-54
2024/02/27 15:11:13;;;;;;;16.13;9.52;;;24.50;48.90;;;;;;6095216;28;80501;-56
2024/02/27 15:14:13;;;;;;;17.75;8.80;;;24.50;48.70;;;;;;6096874;28;81162;-55
2024/02/27 15:17:14;;;;;;;21.77;9.82;;;24.50;48.90;;;;;;6083710;28;81276;-57
2024/02/27 15:20:14;;;;;;;19.17;9.80;;;24.50;48.90;;;;;;6083330;28;80536;-55
2024/02/27 15:23:15;;;;;;;18.55;10.00;;;24.50;48.70;;;;;;6097856;28;80304;-56
2024/02/27 15:26:15;;;;;;;20.65;10.70;;;24.40;48.60;;;;;;6102853;28;83899;-57
2024/02/27 15:29:16;;;;;;;19.10;10.55;;;24.40;48.60;;;;;;6101810;28;83060;-55